Time;durP1;ratioP1;P1;durP2;ratioP2;P2;SDS_P1;SDS_P2;PMS_P1;PMS_P2;Temp;Humidity;BMP_temperature;BMP_pressure;BME280_temperature;BME280_humidity;BME280_pressure;Samples;Min_cycle;Max_cycle;Signal;HPM_P1;HPM_P2
2021/06/26 00:01:48;;;;;;;11.48;9.88;;;;;;;13.07;100.00;101004.19;5200243;28;20038;-78
2021/06/26 00:04:18;;;;;;;10.98;9.80;;;;;;;13.18;100.00;101007.22;5185963;28;20030;-78
2021/06/26 00:06:49;;;;;;;11.95;10.32;;;;;;;13.44;99.52;101004.44;5195400;28;20148;-78
2021/06/26 00:09:21;;;;;;;12.32;10.82;;;;;;;13.38;99.44;101002.06;5195486;28;20090;-78
2021/06/26 00:11:52;;;;;;;13.70;10.80;;;;;;;13.17;100.00;100995.00;5187812;28;20024;-78
2021/06/26 00:14:23;;;;;;;10.07;9.02;;;;;;;13.38;99.02;100995.03;5203485;28;20034;-78
2021/06/26 00:16:53;;;;;;;13.10;10.45;;;;;;;13.41;98.45;101007.19;5192890;28;20025;-78
2021/06/26 00:19:23;;;;;;;12.93;10.05;;;;;;;13.54;96.93;101005.78;5187167;28;20034;-78
2021/06/26 00:21:54;;;;;;;11.85;10.48;;;;;;;13.28;97.36;101012.06;5189553;28;20025;-78
2021/06/26 00:24:24;;;;;;;13.05;11.10;;;;;;;13.06;99.96;101002.47;5197618;28;20446;-78
2021/06/26 00:26:55;;;;;;;12.68;10.18;;;;;;;12.82;100.00;101008.59;5201290;28;20284;-78
2021/06/26 00:29:25;;;;;;;14.48;10.38;;;;;;;12.85;100.00;101008.47;5190042;28;20029;-78
2021/06/26 00:31:55;;;;;;;12.82;10.82;;;;;;;12.66;100.00;101007.47;5191721;28;20079;-78
2021/06/26 00:34:25;;;;;;;14.15;11.02;;;;;;;12.51;100.00;101015.91;5190981;28;20026;-78
2021/06/26 00:36:56;;;;;;;13.02;10.68;;;;;;;12.55;100.00;101008.78;5188680;28;20022;-79
2021/06/26 00:39:26;;;;;;;12.88;10.77;;;;;;;12.63;100.00;101012.00;5181898;28;20564;-79
2021/06/26 00:41:56;;;;;;;12.95;11.25;;;;;;;12.52;100.00;101004.53;5182521;28;20026;-78
2021/06/26 00:44:28;;;;;;;13.15;11.27;;;;;;;12.37;100.00;101010.31;5184909;28;20109;-78
2021/06/26 00:47:01;;;;;;;13.85;11.05;;;;;;;12.29;100.00;101020.19;5189752;28;20044;-79
2021/06/26 00:49:31;;;;;;;14.48;11.18;;;;;;;12.44;100.00;101016.19;5187365;28;20045;-78
2021/06/26 00:52:03;;;;;;;13.82;11.85;;;;;;;12.26;100.00;101016.84;5190181;28;20020;-78
2021/06/26 00:54:34;;;;;;;13.30;11.18;;;;;;;12.34;100.00;101020.03;5187905;28;20101;-79
2021/06/26 00:57:05;;;;;;;15.77;10.70;;;;;;;12.34;100.00;101026.16;5189689;28;20045;-78
2021/06/26 00:59:35;;;;;;;14.60;11.20;;;;;;;12.46;100.00;101020.44;5188791;28;20076;-79
2021/06/26 01:02:08;;;;;;;12.80;11.48;;;;;;;12.53;100.00;101024.59;5187142;28;20252;-78
2021/06/26 01:04:38;;;;;;;13.20;11.85;;;;;;;12.61;100.00;101025.16;5184337;28;20037;-78
2021/06/26 01:07:09;;;;;;;14.32;11.40;;;;;;;12.68;100.00;101029.28;5188289;28;20538;-78
2021/06/26 01:09:39;;;;;;;13.65;12.25;;;;;;;12.65;100.00;101031.97;5186260;28;20033;-79
2021/06/26 01:12:09;;;;;;;12.57;11.05;;;;;;;12.55;100.00;101024.50;5184863;28;20025;-79
2021/06/26 01:14:40;;;;;;;12.68;10.90;;;;;;;12.53;100.00;101021.97;5187078;28;20025;-79
2021/06/26 01:17:10;;;;;;;16.05;11.25;;;;;;;12.52;100.00;101020.25;5187063;28;20029;-78
2021/06/26 01:19:41;;;;;;;11.35;10.15;;;;;;;12.48;100.00;101029.13;5186948;28;20025;-79
2021/06/26 01:22:14;;;;;;;14.10;10.70;;;;;;;12.56;100.00;101021.84;5189585;28;20036;-78
2021/06/26 01:24:44;;;;;;;12.02;10.27;;;;;;;12.69;100.00;101020.50;5188361;28;20018;-78
2021/06/26 01:27:15;;;;;;;13.15;10.55;;;;;;;12.63;100.00;101025.94;5189287;28;20224;-78
2021/06/26 01:29:53;;;;;;;14.82;11.13;;;;;;;12.58;100.00;101021.78;5186114;28;20494;-79
2021/06/26 01:32:24;;;;;;;12.93;10.70;;;;;;;12.62;100.00;101026.03;5184085;28;20037;-79
2021/06/26 01:34:54;;;;;;;12.27;10.07;;;;;;;12.50;100.00;101022.03;5183681;28;20029;-78
2021/06/26 01:37:25;;;;;;;13.23;10.30;;;;;;;12.39;100.00;101013.72;5188398;28;20026;-79
2021/06/26 01:39:55;;;;;;;13.05;9.70;;;;;;;12.31;100.00;101017.53;5185073;28;20073;-78
2021/06/26 01:42:25;;;;;;;11.18;9.80;;;;;;;12.35;100.00;101012.13;5189380;28;20090;-79
2021/06/26 01:44:55;;;;;;;11.93;9.98;;;;;;;12.31;100.00;101000.03;5194970;28;20022;-79
2021/06/26 01:47:26;;;;;;;12.38;10.23;;;;;;;12.26;100.00;101004.59;5193068;28;20030;-78
2021/06/26 01:49:56;;;;;;;12.73;10.85;;;;;;;12.19;100.00;101004.84;5194869;28;20024;-79
2021/06/26 01:52:27;;;;;;;14.02;10.00;;;;;;;12.33;100.00;101013.94;5192271;28;20060;-78
2021/06/26 01:54:57;;;;;;;12.07;9.95;;;;;;;12.60;100.00;100999.84;5218495;22;20045;-78
2021/06/26 01:57:27;;;;;;;12.68;9.80;;;;;;;12.37;100.00;100999.84;5206375;28;20034;-79
2021/06/26 01:59:57;;;;;;;13.52;9.98;;;;;;;12.21;100.00;100997.78;5205897;28;20033;-79
2021/06/26 02:02:28;;;;;;;13.43;10.32;;;;;;;12.05;100.00;100997.50;5210972;28;20251;-77
2021/06/26 02:04:58;;;;;;;12.80;10.13;;;;;;;11.95;100.00;101009.19;5203808;28;20037;-77
2021/06/26 02:07:28;;;;;;;14.70;10.07;;;;;;;11.94;100.00;101002.22;5194767;28;20075;-78
2021/06/26 02:09:59;;;;;;;10.70;9.60;;;;;;;12.05;100.00;101002.72;5188178;28;20196;-77
2021/06/26 02:12:30;;;;;;;12.60;10.15;;;;;;;11.94;100.00;101007.47;5196481;28;20029;-77
2021/06/26 02:15:00;;;;;;;11.93;9.35;;;;;;;12.08;100.00;101013.09;5197664;28;20041;-78
2021/06/26 02:17:30;;;;;;;14.02;9.95;;;;;;;12.00;100.00;101012.53;5194021;28;20034;-77
2021/06/26 02:20:01;;;;;;;17.52;9.88;;;;;;;12.04;100.00;101013.25;5199394;28;20160;-76
2021/06/26 02:22:31;;;;;;;11.88;10.18;;;;;;;11.79;100.00;101010.59;5195965;28;20115;-79
2021/06/26 02:25:05;;;;;;;14.20;9.60;;;;;;;11.93;100.00;101002.31;5201728;28;20033;-78
2021/06/26 02:27:35;;;;;;;12.43;9.00;;;;;;;11.85;100.00;101005.19;5192890;28;20493;-78
2021/06/26 02:30:08;;;;;;;13.88;9.32;;;;;;;11.84;100.00;101008.72;5195215;28;20029;-78
2021/06/26 02:32:39;;;;;;;17.08;10.77;;;;;;;11.76;100.00;101005.47;5200031;28;20584;-79
2021/06/26 02:35:10;;;;;;;15.02;10.98;;;;;;;11.83;100.00;101004.38;5196561;28;20034;-78
2021/06/26 02:37:40;;;;;;;12.23;9.82;;;;;;;12.02;100.00;101007.22;5198358;28;20080;-77
2021/06/26 02:40:11;;;;;;;17.02;11.13;;;;;;;11.88;100.00;101004.19;5197073;28;20472;-78
2021/06/26 02:42:41;;;;;;;14.38;9.85;;;;;;;11.92;100.00;101006.66;5194261;28;20087;-76
2021/06/26 02:45:12;;;;;;;17.27;10.20;;;;;;;11.84;100.00;101003.47;5198162;28;20025;-78
2021/06/26 02:47:43;;;;;;;14.43;10.80;;;;;;;11.83;100.00;101008.75;5196492;28;20030;-78
2021/06/26 02:50:13;;;;;;;18.33;10.75;;;;;;;11.79;100.00;101015.84;5201285;28;20025;-76
2021/06/26 02:52:44;;;;;;;15.45;10.38;;;;;;;11.75;100.00;101013.41;5201710;28;20021;-77
2021/06/26 02:55:14;;;;;;;13.13;9.93;;;;;;;11.82;100.00;101023.59;5200715;28;20026;-78
2021/06/26 02:57:44;;;;;;;13.63;9.95;;;;;;;11.81;100.00;101024.50;5190805;28;20029;-79
2021/06/26 03:00:15;;;;;;;14.85;10.10;;;;;;;11.65;100.00;101020.69;5198548;28;20043;-79
2021/06/26 03:02:45;;;;;;;14.90;10.93;;;;;;;11.77;100.00;101029.91;5196756;28;20017;-77
2021/06/26 03:05:15;;;;;;;16.67;10.13;;;;;;;11.89;100.00;101032.97;5192915;28;20468;-78
2021/06/26 03:07:50;;;;;;;17.08;10.43;;;;;;;11.94;100.00;101036.28;5196038;28;20033;-78
2021/06/26 03:10:22;;;;;;;14.43;8.87;;;;;;;12.01;100.00;101037.81;5194882;28;20030;-77
2021/06/26 03:12:52;;;;;;;14.93;9.00;;;;;;;12.21;100.00;101042.34;5196073;28;20057;-77
2021/06/26 03:15:23;;;;;;;15.27;10.35;;;;;;;12.03;100.00;101041.22;5201139;28;20127;-77
2021/06/26 03:17:53;;;;;;;14.55;10.18;;;;;;;11.80;100.00;101033.25;5199915;28;20018;-78
2021/06/26 03:20:23;;;;;;;12.50;9.77;;;;;;;11.67;100.00;101033.72;5196151;28;20326;-78
2021/06/26 03:22:54;;;;;;;13.75;9.70;;;;;;;11.71;100.00;101043.19;5198301;28;20120;-79
2021/06/26 03:25:24;;;;;;;14.73;9.45;;;;;;;11.75;100.00;101040.44;5183429;28;20030;-77
2021/06/26 03:27:55;;;;;;;13.35;9.38;;;;;;;11.68;100.00;101038.06;5192309;28;20022;-77
2021/06/26 03:30:25;;;;;;;14.65;9.23;;;;;;;11.61;100.00;101036.56;5199993;28;20037;-76
2021/06/26 03:32:55;;;;;;;11.27;8.68;;;;;;;11.72;100.00;101035.28;5197775;28;20068;-76
2021/06/26 03:35:26;;;;;;;13.90;8.95;;;;;;;11.74;100.00;101037.84;5198191;28;20222;-78
2021/06/26 03:37:56;;;;;;;21.23;10.00;;;;;;;11.57;100.00;101038.41;5196332;28;20064;-78
2021/06/26 03:40:26;;;;;;;13.05;10.15;;;;;;;11.72;100.00;101045.78;5193772;28;20076;-78
2021/06/26 03:42:57;;;;;;;14.63;9.35;;;;;;;11.88;100.00;101041.75;5197217;28;20521;-78
2021/06/26 03:45:27;;;;;;;16.35;9.63;;;;;;;12.02;100.00;101039.53;5196704;28;20038;-78
2021/06/26 03:47:57;;;;;;;16.63;9.23;;;;;;;11.98;100.00;101050.97;5197557;28;20029;-78
2021/06/26 03:50:28;;;;;;;16.95;9.95;;;;;;;12.11;100.00;101040.97;5197049;28;20438;-78
2021/06/26 03:52:58;;;;;;;22.17;9.43;;;;;;;12.15;100.00;101050.44;5196887;28;20083;-78
2021/06/26 03:55:28;;;;;;;16.02;8.98;;;;;;;12.30;100.00;101045.50;5187209;28;20029;-78
2021/06/26 03:57:58;;;;;;;17.20;8.80;;;;;;;12.29;100.00;101046.41;5191532;28;20036;-78
2021/06/26 04:00:29;;;;;;;15.05;8.98;;;;;;;12.32;100.00;101056.78;5196103;28;20044;-78
2021/06/26 04:02:59;;;;;;;13.93;8.60;;;;;;;12.31;100.00;101057.69;5195470;28;20278;-78
2021/06/26 04:05:29;;;;;;;14.10;8.32;;;;;;;12.36;100.00;101058.41;5194659;28;20249;-78
2021/06/26 04:07:59;;;;;;;12.98;7.65;;;;;;;12.40;100.00;101053.91;5195125;28;20145;-78
2021/06/26 04:10:31;;;;;;;15.45;7.57;;;;;;;12.71;98.43;101055.38;5192205;28;20037;-78
2021/06/26 04:13:01;;;;;;;16.95;7.80;;;;;;;12.44;100.00;101064.22;5186241;28;20030;-78
2021/06/26 04:15:32;;;;;;;17.00;8.55;;;;;;;12.05;100.00;101065.59;5194219;28;20041;-78
2021/06/26 04:18:03;;;;;;;23.70;8.52;;;;;;;12.19;100.00;101060.75;5192455;28;20087;-78
2021/06/26 04:20:33;;;;;;;17.08;8.15;;;;;;;12.71;100.00;101058.00;5193985;28;20022;-78
2021/06/26 04:23:04;;;;;;;20.65;8.05;;;;;;;12.73;100.00;101064.03;5193261;28;20366;-78
2021/06/26 04:25:34;;;;;;;12.65;7.60;;;;;;;12.89;100.00;101063.41;5194357;28;20037;-78
2021/06/26 04:28:06;;;;;;;15.85;7.88;;;;;;;12.88;100.00;101063.47;5193076;28;20029;-78
2021/06/26 04:30:37;;;;;;;16.35;7.85;;;;;;;12.86;100.00;101067.06;5195440;28;20268;-78
2021/06/26 04:33:08;;;;;;;15.85;8.05;;;;;;;12.88;100.00;101070.47;5193438;28;20115;-78
2021/06/26 04:35:39;;;;;;;15.48;7.22;;;;;;;13.10;100.00;101077.53;5195319;28;20025;-77
2021/06/26 04:38:09;;;;;;;15.65;7.53;;;;;;;13.47;100.00;101067.31;5194294;28;20040;-78
2021/06/26 04:40:39;;;;;;;17.00;7.75;;;;;;;14.08;98.10;101056.88;5194276;28;20403;-78
2021/06/26 04:43:10;;;;;;;19.55;6.80;;;;;;;16.25;88.71;101062.41;5188039;28;20057;-78
2021/06/26 04:45:44;;;;;;;15.60;6.20;;;;;;;17.75;80.09;101055.06;5192168;28;20303;-78
2021/06/26 04:48:19;;;;;;;12.32;5.43;;;;;;;19.38;75.30;101045.00;5195554;28;20268;-78
2021/06/26 04:50:50;;;;;;;9.55;4.50;;;;;;;19.40;72.75;101052.84;5191526;28;20034;-77
2021/06/26 04:53:20;;;;;;;10.45;4.35;;;;;;;19.48;72.67;101053.22;5193616;28;20033;-76
2021/06/26 04:55:53;;;;;;;9.13;4.25;;;;;;;20.40;69.50;101038.13;5192256;28;20030;-77
2021/06/26 04:58:24;;;;;;;10.52;4.38;;;;;;;21.31;67.04;101038.69;5193676;28;20036;-76
2021/06/26 05:00:57;;;;;;;10.05;3.65;;;;;;;22.44;64.04;101029.19;5192724;28;20284;-78
2021/06/26 05:03:28;;;;;;;6.70;4.18;;;;;;;21.81;66.97;101046.50;5196138;28;20040;-77
2021/06/26 05:06:00;;;;;;;11.05;3.95;;;;;;;22.29;65.74;101045.47;5193473;28;20480;-78
2021/06/26 05:08:30;;;;;;;10.35;4.50;;;;;;;23.18;63.58;101033.00;5198521;28;20029;-79
2021/06/26 05:11:02;;;;;;;8.57;4.27;;;;;;;22.92;63.40;101031.56;5194294;28;20030;-79
2021/06/26 05:13:32;;;;;;;10.77;4.47;;;;;;;23.40;62.25;101035.63;5193355;28;20277;-77
2021/06/26 05:16:04;;;;;;;6.53;4.15;;;;;;;24.24;59.00;101036.56;5195436;28;20121;-77
2021/06/26 05:18:34;;;;;;;13.38;4.00;;;;;;;25.49;58.11;101034.44;5196728;28;20116;-78
2021/06/26 05:21:06;;;;;;;11.67;4.77;;;;;;;24.93;58.18;101043.91;5197048;28;20033;-78
2021/06/26 05:23:36;;;;;;;9.82;4.85;;;;;;;26.45;55.67;101041.50;5191315;28;20091;-78
2021/06/26 05:26:09;;;;;;;8.40;4.80;;;;;;;26.99;54.26;101038.00;5196332;28;20033;-78
2021/06/26 05:28:39;;;;;;;8.90;4.90;;;;;;;26.74;55.14;101037.81;5191513;28;20037;-79
2021/06/26 05:31:10;;;;;;;10.18;5.05;;;;;;;25.24;58.60;101040.25;5196039;28;20499;-78
2021/06/26 05:33:40;;;;;;;7.85;5.22;;;;;;;26.13;55.40;101036.47;5197890;28;20026;-77
2021/06/26 05:36:10;;;;;;;10.60;4.70;;;;;;;25.05;59.78;101042.84;5187475;28;20108;-78
2021/06/26 05:38:41;;;;;;;10.73;5.33;;;;;;;24.52;59.92;101043.97;5190263;28;20025;-77
2021/06/26 05:41:11;;;;;;;8.80;5.65;;;;;;;24.67;59.54;101040.00;5186728;28;20284;-78
2021/06/26 05:43:42;;;;;;;8.88;5.20;;;;;;;24.76;60.30;101036.50;5191070;28;20540;-78
2021/06/26 05:46:12;;;;;;;9.68;5.63;;;;;;;23.66;63.64;101042.38;5200049;28;20030;-78
2021/06/26 05:48:43;;;;;;;15.32;5.95;;;;;;;24.23;61.18;101034.06;5192707;28;20626;-78
2021/06/26 05:51:17;;;;;;;10.87;5.27;;;;;;;24.16;62.52;101049.75;5191264;28;20030;-77
2021/06/26 05:53:47;;;;;;;12.15;5.55;;;;;;;23.33;63.42;101047.78;5199694;28;20287;-78
2021/06/26 05:56:18;;;;;;;8.65;5.68;;;;;;;22.13;67.48;101047.59;5188921;28;20033;-77
2021/06/26 05:58:48;;;;;;;8.03;5.27;;;;;;;22.74;64.70;101043.69;5194496;28;20021;-77
2021/06/26 06:01:19;;;;;;;13.40;6.15;;;;;;;21.46;70.95;101048.22;5192420;28;20292;-78
2021/06/26 06:03:49;;;;;;;11.30;5.72;;;;;;;22.27;66.01;101040.25;5188168;28;20053;-77
2021/06/26 06:06:19;;;;;;;9.40;5.35;;;;;;;21.96;67.87;101043.56;5193127;28;20037;-77
2021/06/26 06:08:50;;;;;;;12.25;5.97;;;;;;;21.11;70.43;101042.78;5185574;28;20360;-78
2021/06/26 06:11:20;;;;;;;7.47;5.05;;;;;;;21.96;67.85;101043.56;5184450;28;20403;-78
2021/06/26 06:13:50;;;;;;;11.43;5.68;;;;;;;22.22;68.09;101044.28;5191393;28;20026;-78
2021/06/26 06:16:22;;;;;;;11.67;5.10;;;;;;;22.36;67.84;101044.03;5190501;28;20544;-77
2021/06/26 06:18:53;;;;;;;11.88;5.28;;;;;;;22.14;68.66;101046.63;5191678;28;20326;-78
2021/06/26 06:21:23;;;;;;;11.43;5.13;;;;;;;22.20;69.02;101051.50;5191645;28;20025;-77
2021/06/26 06:23:53;;;;;;;8.32;4.57;;;;;;;23.18;68.54;101054.34;5194288;28;20272;-78
2021/06/26 06:26:24;;;;;;;8.05;4.80;;;;;;;23.39;67.03;101051.78;5192917;28;20041;-77
2021/06/26 06:28:55;;;;;;;9.63;5.13;;;;;;;23.10;68.82;101056.78;5190248;28;20105;-76
2021/06/26 06:31:25;;;;;;;12.15;4.97;;;;;;;23.18;69.30;101054.34;5189332;28;20065;-77
2021/06/26 06:33:55;;;;;;;11.27;4.93;;;;;;;23.72;66.96;101049.88;5184801;28;20068;-78
2021/06/26 06:36:26;;;;;;;9.73;4.57;;;;;;;24.34;65.50;101050.88;5192520;28;20442;-78
2021/06/26 06:38:56;;;;;;;13.50;4.70;;;;;;;24.57;65.89;101044.44;5195341;28;20298;-77
2021/06/26 06:41:26;;;;;;;6.73;4.17;;;;;;;24.83;64.60;101056.41;5192988;28;20120;-78
2021/06/26 06:43:56;;;;;;;9.07;3.70;;;;;;;25.25;65.20;101055.34;5193051;28;20307;-78
2021/06/26 06:46:27;;;;;;;9.35;4.00;;;;;;;24.93;65.16;101058.16;5194353;28;20296;-78
2021/06/26 06:48:57;;;;;;;7.20;3.80;;;;;;;24.67;64.15;101056.88;5196683;28;20111;-78
2021/06/26 06:51:28;;;;;;;10.20;3.85;;;;;;;24.50;63.72;101063.75;5198186;28;20275;-78
2021/06/26 06:53:58;;;;;;;7.75;3.85;;;;;;;24.68;60.03;101063.06;5196537;28;20026;-78
2021/06/26 06:56:29;;;;;;;7.47;3.72;;;;;;;25.34;56.35;101060.72;5196244;28;20036;-77
2021/06/26 06:58:59;;;;;;;5.03;3.17;;;;;;;25.59;58.34;101056.69;5193843;28;20032;-79
2021/06/26 07:01:30;;;;;;;7.30;4.10;;;;;;;25.63;58.02;101064.31;5193880;28;20061;-79
2021/06/26 07:04:00;;;;;;;6.85;3.60;;;;;;;26.06;57.39;101061.31;5188568;28;20037;-77
2021/06/26 07:06:30;;;;;;;6.22;3.53;;;;;;;26.15;57.89;101057.78;5189227;28;20034;-78
2021/06/26 07:09:01;;;;;;;5.60;3.60;;;;;;;25.04;59.90;101067.91;5192219;28;20129;-80
2021/06/26 07:11:31;;;;;;;6.83;3.27;;;;;;;25.00;59.47;101071.84;5189529;28;20091;-79
2021/06/26 07:14:01;;;;;;;7.53;3.20;;;;;;;26.50;58.65;101066.94;5193578;28;20034;-79
2021/06/26 07:16:31;;;;;;;7.97;4.53;;;;;;;25.96;57.91;101065.81;5196944;28;20276;-79
2021/06/26 07:19:02;;;;;;;7.13;3.42;;;;;;;27.38;56.19;101055.66;5198522;28;20028;-79
2021/06/26 07:21:33;;;;;;;12.65;3.30;;;;;;;27.51;55.92;101060.66;5195175;28;20017;-79
2021/06/26 07:24:03;;;;;;;5.95;3.30;;;;;;;27.52;57.13;101057.84;5195845;28;20029;-79
2021/06/26 07:26:34;;;;;;;5.32;2.63;;;;;;;27.10;55.82;101056.63;5193319;28;20037;-79
2021/06/26 07:29:06;;;;;;;6.55;2.70;;;;;;;27.66;56.96;101056.47;5194463;28;20271;-79
2021/06/26 07:31:36;;;;;;;8.25;3.20;;;;;;;29.05;51.54;101052.81;5193459;28;20025;-80
2021/06/26 07:34:06;;;;;;;6.38;3.00;;;;;;;29.26;51.49;101054.06;5183849;28;20038;-80
2021/06/26 07:36:37;;;;;;;6.15;3.08;;;;;;;29.31;50.93;101045.50;5194192;28;20061;-80
2021/06/26 07:39:07;;;;;;;8.38;3.95;;;;;;;28.65;49.23;101041.78;5191063;28;20026;-80
2021/06/26 07:41:38;;;;;;;6.47;3.75;;;;;;;28.92;47.40;101050.53;5185828;28;20109;-79
2021/06/26 07:44:08;;;;;;;10.93;4.78;;;;;;;28.67;46.34;101045.13;5186136;28;20029;-77
2021/06/26 07:46:39;;;;;;;13.05;5.03;;;;;;;28.03;45.64;101041.06;5192372;28;20032;-79
2021/06/26 07:49:10;;;;;;;6.35;4.93;;;;;;;29.93;42.29;101042.34;5190826;28;20056;-80
2021/06/26 07:51:40;;;;;;;10.75;4.60;;;;;;;30.42;42.96;101042.22;5192441;28;20025;-79
2021/06/26 07:54:10;;;;;;;8.13;3.83;;;;;;;30.25;45.44;101043.22;5190625;28;20044;-79
2021/06/26 07:56:41;;;;;;;9.93;3.70;;;;;;;30.29;44.44;101043.75;5197223;28;20272;-79
2021/06/26 07:59:12;;;;;;;9.87;3.50;;;;;;;31.03;42.98;101046.00;5190982;28;20040;-78
2021/06/26 08:01:42;;;;;;;9.25;3.95;;;;;;;31.00;43.07;101048.22;5192601;28;20303;-79
2021/06/26 08:04:12;;;;;;;6.85;3.50;;;;;;;30.59;42.42;101040.38;5192047;28;20037;-79
2021/06/26 08:06:43;;;;;;;8.43;3.78;;;;;;;30.88;42.03;101038.78;5195206;28;20033;-79
2021/06/26 08:09:13;;;;;;;10.07;3.77;;;;;;;31.51;40.70;101040.41;5191642;28;20145;-78
2021/06/26 08:11:43;;;;;;;18.70;4.68;;;;;;;31.65;41.97;101045.09;5191214;28;20033;-79
2021/06/26 08:14:14;;;;;;;7.43;3.03;;;;;;;31.72;42.38;101037.94;5190787;28;20473;-79
2021/06/26 08:16:44;;;;;;;42.43;6.63;;;;;;;30.29;41.05;101039.19;5194185;28;20411;-78
2021/06/26 08:19:14;;;;;;;6.13;3.80;;;;;;;32.05;38.84;101025.88;5192571;28;20188;-78
2021/06/26 08:21:46;;;;;;;4.95;3.70;;;;;;;33.50;36.68;101020.66;5191075;28;20813;-78
2021/06/26 08:24:17;;;;;;;6.93;3.38;;;;;;;32.19;39.07;101025.13;5185991;28;20264;-80
2021/06/26 08:26:47;;;;;;;5.28;3.10;;;;;;;33.11;38.47;101025.56;5192786;28;20450;-77
2021/06/26 08:29:17;;;;;;;7.50;2.80;;;;;;;32.30;38.73;101027.41;5187500;28;20038;-76
2021/06/26 08:31:47;;;;;;;8.85;3.22;;;;;;;31.46;40.48;101018.50;5189462;28;20265;-76
2021/06/26 08:34:18;;;;;;;5.83;2.90;;;;;;;30.73;41.70;101012.66;5186510;28;20042;-79
2021/06/26 08:36:50;;;;;;;11.15;2.97;;;;;;;29.33;43.99;101027.34;5184148;28;20025;-79
2021/06/26 08:39:21;;;;;;;5.65;2.90;;;;;;;31.02;41.33;101024.56;5189699;28;20037;-79
2021/06/26 08:41:51;;;;;;;6.53;2.40;;;;;;;31.85;41.30;101024.69;5193807;28;20041;-77
2021/06/26 08:44:22;;;;;;;10.23;2.90;;;;;;;30.95;41.71;101029.81;5187128;28;20423;-78
2021/06/26 08:46:52;;;;;;;6.97;2.70;;;;;;;32.64;38.76;101021.47;5192134;28;20272;-78
2021/06/26 08:49:22;;;;;;;14.05;3.75;;;;;;;32.86;41.13;101021.44;5191805;28;20467;-78
2021/06/26 08:51:54;;;;;;;6.60;2.63;;;;;;;33.96;37.85;101016.56;5194774;28;20487;-79
2021/06/26 08:54:24;;;;;;;5.18;2.40;;;;;;;33.23;38.51;101021.34;5187131;28;20097;-78
2021/06/26 08:56:56;;;;;;;8.20;2.47;;;;;;;31.85;38.37;101030.09;5190624;28;20065;-78
2021/06/26 08:59:26;;;;;;;6.70;2.90;;;;;;;32.77;37.67;101032.56;5187104;28;20366;-79
2021/06/26 09:01:56;;;;;;;5.00;2.43;;;;;;;34.50;35.76;101025.88;5195436;28;20651;-79
2021/06/26 09:04:27;;;;;;;9.60;2.43;;;;;;;33.72;36.35;101031.38;5188167;28;20200;-81
2021/06/26 09:06:59;;;;;;;10.35;2.63;;;;;;;33.97;36.54;101021.00;5195763;28;20330;-80
2021/06/26 09:09:33;;;;;;;6.75;2.72;;;;;;;34.12;37.14;101021.75;5197426;28;20029;-80
2021/06/26 09:12:09;;;;;;;4.13;2.50;;;;;;;32.91;39.17;101023.59;5195317;28;20443;-80
2021/06/26 09:14:43;;;;;;;6.75;2.47;;;;;;;32.49;38.99;101031.44;5196625;28;20040;-80
2021/06/26 09:17:18;;;;;;;7.68;2.35;;;;;;;31.40;38.19;101021.06;5194006;28;20033;-78
2021/06/26 09:19:57;;;;;;;5.88;2.83;;;;;;;31.84;38.02;101028.41;5192510;28;20495;-81
2021/06/26 09:22:41;;;;;;;2.78;1.65;;;;;;;33.68;38.49;101019.19;5198044;28;20664;-79
2021/06/26 09:25:24;;;;;;;3.63;2.10;;;;;;;32.58;37.25;101014.09;5197117;28;20041;-76
2021/06/26 09:27:56;;;;;;;4.90;2.38;;;;;;;32.01;39.31;101016.44;5188291;28;20033;-80
2021/06/26 09:30:53;;;;;;;4.07;2.10;;;;;;;32.46;36.84;101013.72;5190131;28;20101;-80
2021/06/26 09:33:25;;;;;;;3.13;1.77;;;;;;;30.40;41.79;101017.25;5192422;28;20065;-78
2021/06/26 09:36:04;;;;;;;4.43;2.15;;;;;;;29.88;43.09;101015.88;5197533;28;20041;-78
2021/06/26 09:38:53;;;;;;;6.35;1.92;;;;;;;30.58;40.78;101015.22;5197275;28;20053;-81
2021/06/26 09:41:23;;;;;;;3.33;2.00;;;;;;;31.53;40.70;101008.63;5190230;28;20042;-80
2021/06/26 09:43:54;;;;;;;3.47;2.10;;;;;;;29.44;43.59;101013.56;5193635;28;20041;-78
2021/06/26 09:46:24;;;;;;;2.97;1.95;;;;;;;31.34;40.53;101009.09;5184313;28;20285;-78
2021/06/26 09:48:59;;;;;;;4.23;1.80;;;;;;;31.67;41.13;101004.38;5189153;28;20025;-78
2021/06/26 09:51:32;;;;;;;5.20;1.92;;;;;;;29.51;40.74;101002.00;5186768;28;20045;-78
2021/06/26 09:54:05;;;;;;;5.00;2.10;;;;;;;30.82;39.37;101004.41;5187273;28;20029;-78
2021/06/26 09:56:45;;;;;;;5.15;2.33;;;;;;;29.23;41.01;101003.22;5185081;28;20060;-79
2021/06/26 09:59:17;;;;;;;4.40;2.50;;;;;;;28.23;43.03;101011.19;5185092;28;20033;-76
2021/06/26 10:01:48;;;;;;;4.57;2.70;;;;;;;28.27;41.80;101003.66;5181798;28;20646;-77
2021/06/26 10:04:19;;;;;;;5.60;2.70;;;;;;;28.02;42.24;101009.81;5179223;28;20084;-75
2021/06/26 10:06:50;;;;;;;3.08;2.13;;;;;;;28.40;43.11;101007.63;5185353;28;20034;-76
2021/06/26 10:09:21;;;;;;;6.25;2.15;;;;;;;27.87;43.38;101004.16;5188210;28;20061;-76
2021/06/26 10:11:51;;;;;;;4.28;1.80;;;;;;;29.37;42.38;100993.69;5188581;28;20038;-77
2021/06/26 10:14:26;;;;;;;3.20;1.73;;;;;;;30.11;39.19;100994.53;5186595;28;20032;-79
2021/06/26 10:16:57;;;;;;;3.87;2.20;;;;;;;30.44;39.24;101002.41;5184214;28;20613;-80
2021/06/26 10:19:28;;;;;;;8.32;2.38;;;;;;;27.97;42.57;101004.91;5189867;28;20277;-78
2021/06/26 10:21:58;;;;;;;9.38;2.30;;;;;;;27.85;44.18;100995.41;5192506;28;20113;-78
2021/06/26 10:24:29;;;;;;;32.20;4.13;;;;;;;27.68;43.87;100992.66;5194471;28;20060;-78
2021/06/26 10:26:59;;;;;;;5.25;2.80;;;;;;;27.85;43.16;100998.09;5199283;28;20272;-77
2021/06/26 10:29:33;;;;;;;3.53;2.08;;;;;;;27.06;42.00;100985.41;5198903;28;20051;-78
2021/06/26 10:32:12;;;;;;;5.28;2.00;;;;;;;26.68;44.12;100994.63;5198990;28;20033;-78
2021/06/26 10:34:44;;;;;;;4.88;1.90;;;;;;;27.91;44.53;100988.53;5197436;28;20077;-78
2021/06/26 10:37:18;;;;;;;4.45;1.70;;;;;;;27.14;44.50;100988.22;5189932;28;20025;-78
2021/06/26 10:40:02;;;;;;;6.53;1.80;;;;;;;27.44;44.53;100993.25;5194545;28;20144;-78
2021/06/26 10:42:35;;;;;;;3.10;1.60;;;;;;;27.98;43.55;100990.47;5180351;28;20045;-78
2021/06/26 10:45:23;;;;;;;3.58;1.83;;;;;;;28.10;42.86;100986.53;5180684;28;20038;-78
2021/06/26 10:47:54;;;;;;;4.55;2.28;;;;;;;27.01;44.62;100976.97;5183854;28;20042;-78
2021/06/26 10:50:24;;;;;;;3.63;2.22;;;;;;;26.72;46.16;100985.28;5187421;28;20026;-79
2021/06/26 10:52:56;;;;;;;2.78;1.77;;;;;;;27.09;46.26;100979.75;5187889;28;20041;-77
2021/06/26 10:55:44;;;;;;;3.90;2.20;;;;;;;27.43;48.02;100982.69;5190463;28;20040;-78
2021/06/26 10:58:14;;;;;;;4.88;2.65;;;;;;;27.59;45.49;100982.84;5178524;28;20042;-79
2021/06/26 11:00:45;;;;;;;3.20;2.00;;;;;;;27.72;45.30;100983.31;5186769;28;20045;-79
2021/06/26 11:03:20;;;;;;;3.15;2.20;;;;;;;27.06;45.20;100985.41;5192701;28;20042;-78
2021/06/26 11:05:51;;;;;;;5.40;2.00;;;;;;;27.34;46.05;100984.44;5187073;28;20030;-78
2021/06/26 11:08:21;;;;;;;4.18;2.20;;;;;;;27.25;44.65;100979.97;5189632;28;20065;-79
2021/06/26 11:10:56;;;;;;;5.18;2.10;;;;;;;26.74;45.79;100990.34;5188052;28;20113;-78
2021/06/26 11:13:29;;;;;;;5.07;2.40;;;;;;;26.71;45.82;100987.13;5185515;28;21036;-79
2021/06/26 11:16:08;;;;;;;4.00;2.55;;;;;;;27.24;46.06;100980.97;5192738;28;20095;-78
2021/06/26 11:18:39;;;;;;;5.03;2.33;;;;;;;27.43;45.15;100982.69;5186879;28;20045;-79
2021/06/26 11:21:09;;;;;;;3.15;2.20;;;;;;;27.56;44.89;100975.06;5184661;28;20029;-78
2021/06/26 11:23:49;;;;;;;4.15;2.35;;;;;;;27.56;48.16;100972.38;5187717;28;20037;-78
2021/06/26 11:26:20;;;;;;;3.72;2.10;;;;;;;27.68;45.88;100973.88;5191799;28;20080;-79
2021/06/26 11:28:50;;;;;;;4.05;1.98;;;;;;;27.70;46.32;100970.03;5182141;28;20025;-78
2021/06/26 11:31:21;;;;;;;3.75;2.38;;;;;;;27.74;44.66;100970.59;5199669;28;20034;-79
2021/06/26 11:33:51;;;;;;;5.38;2.30;;;;;;;27.15;46.38;100967.59;5196494;28;20055;-79
2021/06/26 11:36:22;;;;;;;3.05;2.00;;;;;;;27.24;46.85;100964.84;5192346;28;20037;-78